Time,TemperatureF,DewpointF,PressureIn,WindDirection,WindDirectionDegrees,WindSpeedMPH,WindSpeedGustMPH,Humidity,HourlyPrecipIn,Conditions,Clouds,dailyrainin,SoftwareType,DateUTC
2013-03-12 00:03:00,54.1,53.6,29.66,South,180,2.7,-999.0,98,-99.99,,,1.49,Acu-Link.com,2013-03-12 02:03:00,
2013-03-12 00:18:00,54.1,53.6,29.65,SE,135,1.1,-999.0,98,-99.99,,,1.54,Acu-Link.com,2013-03-12 02:18:00,
2013-03-12 00:33:00,54.1,53.6,29.66,SE,135,0.0,-999.0,98,-99.99,,,1.55,Acu-Link.com,2013-03-12 02:33:00,
2013-03-12 00:49:00,54.1,53.6,29.66,ENE,67,0.0,-999.0,98,-99.99,,,1.61,Acu-Link.com,2013-03-12 02:49:00,
2013-03-12 01:04:00,54.1,53.6,29.66,ESE,112,0.0,-999.0,98,-99.99,,,1.62,Acu-Link.com,2013-03-12 03:04:00,
2013-03-12 01:19:00,54.1,53.6,29.66,East,90,0.0,-999.0,98,-99.99,,,1.63,Acu-Link.com,2013-03-12 03:19:00,
2013-03-12 01:34:00,54.1,53.6,29.66,North,0,0.0,-999.0,98,-99.99,,,1.63,Acu-Link.com,2013-03-12 03:34:00,
2013-03-12 01:49:00,54.1,53.6,29.65,NNE,22,0.0,-999.0,98,-99.99,,,1.65,Acu-Link.com,2013-03-12 03:49:00,
2013-03-12 02:05:00,54.1,53.6,29.64,SSE,157,0.0,-999.0,98,-99.99,,,0.00,Acu-Link.com,2013-03-12 04:05:00,
2013-03-12 02:20:00,54.1,53.6,29.64,ESE,112,0.0,-999.0,98,-99.99,,,0.04,Acu-Link.com,2013-03-12 04:20:00,
2013-03-12 02:35:00,54.1,53.6,29.64,West,270,0.0,-999.0,98,-99.99,,,0.04,Acu-Link.com,2013-03-12 04:35:00,
2013-03-12 02:50:00,54.0,53.4,29.64,ESE,112,0.0,-999.0,98,-99.99,,,0.05,Acu-Link.com,2013-03-12 04:50:00,
2013-03-12 03:06:00,54.0,53.4,29.63,ENE,67,0.0,-999.0,98,-99.99,,,0.06,Acu-Link.com,2013-03-12 05:06:00,
2013-03-12 03:36:00,54.0,53.4,29.63,ESE,112,0.0,-999.0,98,-99.99,,,0.08,Acu-Link.com,2013-03-12 05:36:00,
2013-03-12 03:51:00,54.0,53.4,29.62,ESE,112,0.0,-999.0,98,-99.99,,,0.08,Acu-Link.com,2013-03-12 05:51:00,
2013-03-12 04:06:00,54.0,53.4,29.62,SE,135,1.1,-999.0,98,-99.99,,,0.09,Acu-Link.com,2013-03-12 06:06:00,
2013-03-12 04:37:00,53.2,52.7,29.63,SSE,157,0.0,-999.0,98,-99.99,,,0.11,Acu-Link.com,2013-03-12 06:37:00,
2013-03-12 04:52:00,52.7,52.2,29.63,NE,45,0.0,-999.0,98,-99.99,,,0.11,Acu-Link.com,2013-03-12 06:52:00,
2013-03-12 05:07:00,52.0,51.4,29.62,NE,45,0.0,-999.0,98,-99.99,,,0.11,Acu-Link.com,2013-03-12 07:07:00,
2013-03-12 05:22:00,51.6,51.1,29.63,SE,135,0.0,-999.0,98,-99.99,,,0.11,Acu-Link.com,2013-03-12 07:22:00,
2013-03-12 05:38:00,50.4,49.8,29.63,NE,45,0.0,-999.0,98,-99.99,,,0.11,Acu-Link.com,2013-03-12 07:38:00,
2013-03-12 05:53:00,49.3,48.7,29.62,East,90,0.0,-999.0,98,-99.99,,,0.11,Acu-Link.com,2013-03-12 07:53:00,
2013-03-12 06:08:00,48.4,47.8,29.61,East,90,0.0,-999.0,98,-99.99,,,0.11,Acu-Link.com,2013-03-12 08:08:00,
2013-03-12 06:24:00,47.5,46.9,29.61,SE,135,1.1,-999.0,98,-99.99,,,0.11,Acu-Link.com,2013-03-12 08:24:00,
2013-03-12 06:39:00,46.4,45.9,29.62,North,0,1.6,-999.0,98,-99.99,,,0.11,Acu-Link.com,2013-03-12 08:39:00,
2013-03-12 06:54:00,45.7,45.1,29.62,ESE,112,0.0,-999.0,98,-99.99,,,0.11,Acu-Link.com,2013-03-12 08:54:00,
2013-03-12 07:09:00,45.1,44.6,29.62,NE,45,0.0,-999.0,98,-99.99,,,0.11,Acu-Link.com,2013-03-12 09:09:00,
2013-03-12 07:24:00,44.4,43.9,29.63,ESE,112,1.1,-999.0,98,-99.99,,,0.11,Acu-Link.com,2013-03-12 09:24:00,
2013-03-12 07:39:00,43.7,43.2,29.63,SSW,202,1.6,-999.0,98,-99.99,,,0.11,Acu-Link.com,2013-03-12 09:39:00,
2013-03-12 07:55:00,43.2,42.6,29.64,South,180,0.0,-999.0,98,-99.99,,,0.11,Acu-Link.com,2013-03-12 09:55:00,
2013-03-12 08:10:00,42.1,41.6,29.64,WNW,292,0.0,-999.0,98,-99.99,,,0.11,Acu-Link.com,2013-03-12 10:10:00,
2013-03-12 08:25:00,41.4,40.8,29.65,South,180,0.0,-999.0,98,-99.99,,,0.11,Acu-Link.com,2013-03-12 10:25:00,
2013-03-12 08:40:00,40.5,39.9,29.66,East,90,2.7,-999.0,98,-99.99,,,0.11,Acu-Link.com,2013-03-12 10:40:00,
2013-03-12 08:56:00,40.1,39.6,29.65,SW,225,0.0,-999.0,98,-99.99,,,0.11,Acu-Link.com,2013-03-12 10:56:00,
2013-03-12 09:26:00,39.2,38.7,29.68,NNW,337,0.0,-999.0,98,-99.99,,,0.11,Acu-Link.com,2013-03-12 11:26:00,
2013-03-12 09:41:00,38.5,38.0,29.68,SSE,157,0.0,-999.0,98,-99.99,,,0.11,Acu-Link.com,2013-03-12 11:41:00,
2013-03-12 09:56:00,38.1,37.6,29.70,NW,315,2.2,-999.0,98,-99.99,,,0.11,Acu-Link.com,2013-03-12 11:56:00,
2013-03-12 10:12:00,37.9,37.4,29.70,NNE,22,0.0,-999.0,98,-99.99,,,0.11,Acu-Link.com,2013-03-12 12:12:00,
2013-03-12 10:27:00,38.7,38.1,29.71,North,0,3.1,-999.0,98,-99.99,,,0.11,Acu-Link.com,2013-03-12 12:27:00,
2013-03-12 10:42:00,39.7,39.2,29.71,ENE,67,1.6,-999.0,98,-99.99,,,0.11,Acu-Link.com,2013-03-12 12:42:00,
2013-03-12 10:57:00,40.6,40.1,29.71,NNW,337,3.8,-999.0,98,-99.99,,,0.11,Acu-Link.com,2013-03-12 12:57:00,
2013-03-12 11:13:00,43.2,42.6,29.71,NNW,337,2.2,-999.0,98,-99.99,,,0.11,Acu-Link.com,2013-03-12 13:13:00,
2013-03-12 11:28:00,43.5,43.0,29.71,SW,225,4.3,-999.0,98,-99.99,,,0.11,Acu-Link.com,2013-03-12 13:28:00,
2013-03-12 11:43:00,44.1,43.5,29.71,NNE,22,5.1,-999.0,98,-99.99,,,0.11,Acu-Link.com,2013-03-12 13:43:00,
2013-03-12 12:13:00,46.2,45.7,29.72,East,90,3.8,-999.0,98,-99.99,,,0.11,Acu-Link.com,2013-03-12 14:13:00,
2013-03-12 12:29:00,49.1,48.6,29.72,NW,315,2.7,-999.0,98,-99.99,,,0.11,Acu-Link.com,2013-03-12 14:29:00,
2013-03-12 12:44:00,49.1,48.6,29.73,ENE,67,1.6,-999.0,98,-99.99,,,0.11,Acu-Link.com,2013-03-12 14:44:00,
2013-03-12 12:59:00,49.6,47.4,29.73,ESE,112,3.8,-999.0,92,-99.99,,,0.11,Acu-Link.com,2013-03-12 14:59:00,
2013-03-12 13:14:00,50.9,47.2,29.74,ENE,67,2.2,-999.0,87,-99.99,,,0.11,Acu-Link.com,2013-03-12 15:14:00,
2013-03-12 13:29:00,52.3,46.0,29.75,SSE,157,3.8,-999.0,79,-99.99,,,0.11,Acu-Link.com,2013-03-12 15:29:00,
2013-03-12 13:45:00,54.0,46.2,29.75,NW,315,2.2,-999.0,75,-99.99,,,0.11,Acu-Link.com,2013-03-12 15:45:00,
2013-03-12 14:00:00,55.2,46.7,29.75,North,0,3.8,-999.0,73,-99.99,,,0.11,Acu-Link.com,2013-03-12 16:00:00,
2013-03-12 14:15:00,55.8,46.5,29.76,ENE,67,3.1,-999.0,71,-99.99,,,0.11,Acu-Link.com,2013-03-12 16:15:00,
2013-03-12 14:30:00,57.2,44.3,29.76,NNE,22,3.1,-999.0,62,-99.99,,,0.11,Acu-Link.com,2013-03-12 16:30:00,
2013-03-12 14:45:00,56.8,43.1,29.76,WNW,292,2.7,-999.0,60,-99.99,,,0.11,Acu-Link.com,2013-03-12 16:45:00,
2013-03-12 15:01:00,57.6,43.3,29.77,NE,45,5.1,-999.0,59,-99.99,,,0.11,Acu-Link.com,2013-03-12 17:01:00,
2013-03-12 15:16:00,57.9,40.9,29.76,NNW,337,3.1,-999.0,53,-99.99,,,0.11,Acu-Link.com,2013-03-12 17:16:00,
2013-03-12 16:02:00,60.1,40.9,29.76,East,90,3.1,-999.0,49,-99.99,,,0.11,Acu-Link.com,2013-03-12 18:02:00,
2013-03-12 16:17:00,61.5,41.6,29.76,NNE,22,2.7,-999.0,48,-99.99,,,0.11,Acu-Link.com,2013-03-12 18:17:00,
2013-03-12 16:32:00,61.9,40.9,29.76,SW,225,2.2,-999.0,46,-99.99,,,0.11,Acu-Link.com,2013-03-12 18:32:00,
2013-03-12 16:47:00,61.9,39.7,29.75,SE,135,5.1,-999.0,44,-99.99,,,0.11,Acu-Link.com,2013-03-12 18:47:00,
2013-03-12 17:18:00,62.8,42.2,29.76,North,0,2.7,-999.0,47,-99.99,,,0.11,Acu-Link.com,2013-03-12 19:18:00,
2013-03-12 17:33:00,62.4,41.9,29.75,WNW,292,4.3,-999.0,47,-99.99,,,0.11,Acu-Link.com,2013-03-12 19:33:00,
2013-03-12 17:48:00,63.5,41.2,29.76,NE,45,2.7,-999.0,44,-99.99,,,0.11,Acu-Link.com,2013-03-12 19:48:00,
2013-03-12 18:03:00,61.9,39.1,29.76,NNE,22,3.8,-999.0,43,-99.99,,,0.11,Acu-Link.com,2013-03-12 20:03:00,
2013-03-12 18:18:00,60.4,36.6,29.76,NW,315,2.7,-999.0,41,-99.99,,,0.11,Acu-Link.com,2013-03-12 20:18:00,
2013-03-12 18:34:00,60.1,36.9,29.76,West,270,3.8,-999.0,42,-99.99,,,0.11,Acu-Link.com,2013-03-12 20:34:00,
2013-03-12 18:49:00,60.4,37.8,29.76,WNW,292,2.2,-999.0,43,-99.99,,,0.11,Acu-Link.com,2013-03-12 20:49:00,
2013-03-12 19:04:00,59.7,37.8,29.76,NNW,337,4.3,-999.0,44,-99.99,,,0.11,Acu-Link.com,2013-03-12 21:04:00,
2013-03-12 19:19:00,59.2,37.9,29.76,NNW,337,5.1,-999.0,45,-99.99,,,0.11,Acu-Link.com,2013-03-12 21:19:00,
2013-03-12 19:34:00,58.6,36.8,29.77,NNW,337,3.1,-999.0,44,-99.99,,,0.11,Acu-Link.com,2013-03-12 21:34:00,
2013-03-12 19:50:00,58.1,36.9,29.77,West,270,2.7,-999.0,45,-99.99,,,0.11,Acu-Link.com,2013-03-12 21:50:00,
2013-03-12 20:05:00,57.2,36.1,29.78,WNW,292,1.6,-999.0,45,-99.99,,,0.11,Acu-Link.com,2013-03-12 22:05:00,
2013-03-12 20:20:00,55.9,34.9,29.79,North,0,4.3,-999.0,45,-99.99,,,0.11,Acu-Link.com,2013-03-12 22:20:00,
2013-03-12 20:35:00,54.9,35.0,29.78,WNW,292,2.7,-999.0,47,-99.99,,,0.11,Acu-Link.com,2013-03-12 22:35:00,
2013-03-12 20:51:00,54.1,37.4,29.80,NE,45,2.7,-999.0,53,-99.99,,,0.11,Acu-Link.com,2013-03-12 22:51:00,
2013-03-12 21:21:00,52.2,37.8,29.81,West,270,1.6,-999.0,58,-99.99,,,0.11,Acu-Link.com,2013-03-12 23:21:00,
2013-03-12 21:36:00,50.9,37.1,29.83,WNW,292,1.1,-999.0,59,-99.99,,,0.11,Acu-Link.com,2013-03-12 23:36:00,
2013-03-12 22:07:00,48.9,36.1,29.84,NNW,337,1.6,-999.0,61,-99.99,,,0.11,Acu-Link.com,2013-03-13 00:07:00,
2013-03-12 22:22:00,48.0,35.2,29.85,NNE,22,1.6,-999.0,61,-99.99,,,0.11,Acu-Link.com,2013-03-13 00:22:00,
2013-03-12 22:37:00,47.3,35.7,29.85,North,0,1.6,-999.0,64,-99.99,,,0.11,Acu-Link.com,2013-03-13 00:37:00,
2013-03-12 22:52:00,46.4,35.7,29.85,NNW,337,0.0,-999.0,66,-99.99,,,0.11,Acu-Link.com,2013-03-13 00:52:00,
2013-03-12 23:07:00,45.7,35.4,29.85,SW,225,0.0,-999.0,67,-99.99,,,0.11,Acu-Link.com,2013-03-13 01:07:00,
2013-03-12 23:23:00,44.6,36.1,29.86,South,180,0.0,-999.0,72,-99.99,,,0.11,Acu-Link.com,2013-03-13 01:23:00,
2013-03-12 23:38:00,43.5,36.5,29.87,NNW,337,0.0,-999.0,76,-99.99,,,0.11,Acu-Link.com,2013-03-13 01:38:00,
2013-03-12 23:53:00,42.4,36.7,29.87,NNE,22,0.0,-999.0,80,-99.99,,,0.11,Acu-Link.com,2013-03-13 01:53:00,